createdAt,value
2019-04-03T00:01:40.566Z,13.40
2019-04-03T00:04:09.072Z,13.40
2019-04-03T00:06:37.567Z,13.50
2019-04-03T00:09:07.754Z,13.40
2019-04-03T00:11:39.356Z,13.40
2019-04-03T00:14:07.421Z,13.30
2019-04-03T00:16:35.869Z,13.00
2019-04-03T00:19:04.508Z,12.80
2019-04-03T00:21:33.023Z,12.80
2019-04-03T00:24:01.467Z,12.80
2019-04-03T00:26:30.789Z,12.80
2019-04-03T00:28:59.708Z,12.70
2019-04-03T00:31:28.205Z,12.70
2019-04-03T00:33:56.650Z,12.60
2019-04-03T00:36:25.116Z,12.60
2019-04-03T00:38:54.369Z,12.60
2019-04-03T00:41:24.727Z,12.60
2019-04-03T00:43:54.512Z,12.60
2019-04-03T00:46:24.460Z,12.60
2019-04-03T00:48:55.339Z,12.50
2019-04-03T00:51:23.831Z,12.50
2019-04-03T00:53:52.280Z,12.50
2019-04-03T00:56:20.737Z,12.50
2019-04-03T00:58:49.272Z,12.60
2019-04-03T01:01:17.796Z,12.90
2019-04-03T01:03:46.447Z,12.90
2019-04-03T01:06:14.978Z,12.80
2019-04-03T01:08:43.503Z,12.70
2019-04-03T01:11:11.968Z,12.50
2019-04-03T01:13:40.483Z,12.70
2019-04-03T01:16:08.935Z,12.90
2019-04-03T01:18:37.368Z,13.00
2019-04-03T01:21:06.904Z,13.00
2019-04-03T01:23:37.837Z,12.70
2019-04-03T01:26:05.820Z,12.30
2019-04-03T01:28:34.276Z,12.10
2019-04-03T01:31:02.790Z,12.10
2019-04-03T01:33:31.273Z,12.10
2019-04-03T01:35:59.764Z,12.00
2019-04-03T01:38:28.301Z,12.10
2019-04-03T01:40:56.828Z,12.10
2019-04-03T01:43:25.282Z,12.20
2019-04-03T01:45:56.484Z,12.10
2019-04-03T01:48:23.939Z,12.00
2019-04-03T01:50:52.390Z,11.90
2019-04-03T01:53:20.904Z,11.80
2019-04-03T01:55:49.362Z,11.80
2019-04-03T01:58:17.801Z,11.80
2019-04-03T02:00:47.565Z,11.80
2019-04-03T02:03:16.182Z,11.90
2019-04-03T02:05:44.693Z,11.90
2019-04-03T02:08:14.585Z,11.90
2019-04-03T02:10:43.340Z,12.20
2019-04-03T02:13:11.794Z,12.50
2019-04-03T02:15:40.242Z,12.70
2019-04-03T02:18:08.706Z,12.70
2019-04-03T02:20:37.151Z,12.60
2019-04-03T02:23:05.843Z,12.70
2019-04-03T02:25:34.351Z,12.60
2019-04-03T02:28:03.770Z,12.60
2019-04-03T02:30:33.052Z,12.40
2019-04-03T02:33:01.552Z,12.60
2019-04-03T02:35:30.175Z,12.60
2019-04-03T02:37:58.617Z,12.40
2019-04-03T02:40:31.165Z,12.50
2019-04-03T02:42:57.323Z,12.50
2019-04-03T02:45:25.843Z,12.50
2019-04-03T02:47:54.692Z,12.40
2019-04-03T02:50:25.423Z,12.40
2019-04-03T02:52:57.950Z,12.30
2019-04-03T02:55:25.293Z,12.40
2019-04-03T02:57:54.034Z,12.60
2019-04-03T03:00:22.742Z,12.60
2019-04-03T03:02:51.321Z,12.70
2019-04-03T03:05:20.272Z,12.70
2019-04-03T03:07:48.916Z,12.60
2019-04-03T03:10:19.301Z,12.50
2019-04-03T03:12:48.481Z,12.40
2019-04-03T03:15:17.225Z,12.40
2019-04-03T03:17:46.363Z,12.50
2019-04-03T03:20:17.954Z,12.50
2019-04-03T03:22:49.972Z,12.50
2019-04-03T03:25:17.220Z,12.30
2019-04-03T03:27:46.840Z,12.00
2019-04-03T03:30:32.751Z,11.90
2019-04-03T03:32:46.268Z,11.80
2019-04-03T03:35:19.891Z,11.70
2019-04-03T03:37:45.736Z,11.60
2019-04-03T03:40:16.609Z,11.40
2019-04-03T03:42:44.838Z,11.30
2019-04-03T03:45:18.123Z,11.20
2019-04-03T03:47:43.672Z,11.00
2019-04-03T03:50:13.367Z,10.80
2019-04-03T03:52:42.023Z,10.70
2019-04-03T03:55:10.695Z,10.50
2019-04-03T03:57:40.660Z,10.50
2019-04-03T04:00:10.197Z,10.50
2019-04-03T04:02:43.107Z,10.50
2019-04-03T04:05:11.563Z,10.50
2019-04-03T04:07:39.699Z,10.50
2019-04-03T04:10:08.677Z,10.40
2019-04-03T04:12:41.189Z,10.50
2019-04-03T04:15:07.787Z,10.70
2019-04-03T04:17:36.890Z,10.70
2019-04-03T04:20:07.365Z,10.70
2019-04-03T04:22:37.332Z,10.60
2019-04-03T04:25:07.040Z,10.60
2019-04-03T04:27:38.024Z,10.50
2019-04-03T04:30:07.252Z,10.60
2019-04-03T04:32:35.708Z,10.40
2019-04-03T04:35:05.906Z,10.40
2019-04-03T04:37:34.413Z,10.40
2019-04-03T04:40:02.981Z,10.50
2019-04-03T04:42:34.490Z,10.50
2019-04-03T04:45:01.879Z,10.70
2019-04-03T04:47:30.401Z,10.50
2019-04-03T04:49:58.879Z,10.50
2019-04-03T04:52:27.682Z,10.50
2019-04-03T04:54:56.775Z,10.30
2019-04-03T04:57:25.535Z,10.20
2019-04-03T04:59:54.264Z,10.10
2019-04-03T05:02:22.793Z,10.00
2019-04-03T05:04:51.235Z,9.90
2019-04-03T05:07:19.693Z,9.90
2019-04-03T05:09:48.147Z,9.90
2019-04-03T05:12:17.153Z,10.10
2019-04-03T05:14:46.826Z,10.40
2019-04-03T05:17:16.336Z,10.20
2019-04-03T05:19:44.988Z,10.00
2019-04-03T05:22:13.725Z,9.80
2019-04-03T05:24:42.531Z,9.80
2019-04-03T05:27:11.160Z,9.90
2019-04-03T05:29:39.844Z,10.00
2019-04-03T05:32:10.670Z,10.10
2019-04-03T05:34:38.755Z,10.20
2019-04-03T05:37:07.246Z,10.10
2019-04-03T05:39:35.807Z,10.00
2019-04-03T05:42:04.541Z,9.90
2019-04-03T05:44:33.990Z,9.90
2019-04-03T05:47:02.429Z,9.90
2019-04-03T05:49:30.970Z,9.90
2019-04-03T05:51:59.517Z,9.80
2019-04-03T05:54:27.993Z,9.80
2019-04-03T05:56:56.461Z,9.80
2019-04-03T05:59:24.919Z,9.90
2019-04-03T06:01:53.362Z,10.10
2019-04-03T06:04:21.875Z,10.20
2019-04-03T06:06:50.314Z,10.20
2019-04-03T06:09:20.081Z,10.20
2019-04-03T06:11:51.709Z,10.30
2019-04-03T06:14:19.804Z,10.30
2019-04-03T06:16:49.401Z,10.60
2019-04-03T06:19:17.879Z,10.80
2019-04-03T06:21:46.612Z,10.80
2019-04-03T06:24:17.685Z,10.90
2019-04-03T06:26:45.362Z,11.00
2019-04-03T06:29:13.874Z,11.10
2019-04-03T06:31:42.395Z,11.00
2019-04-03T06:34:10.864Z,11.10
2019-04-03T06:36:39.385Z,11.00
2019-04-03T06:39:08.675Z,11.10
2019-04-03T06:41:37.261Z,11.10
2019-04-03T06:44:07.572Z,11.20
2019-04-03T06:46:35.889Z,11.30
2019-04-03T06:49:04.623Z,11.70
2019-04-03T06:51:34.595Z,11.90
2019-04-03T06:54:03.046Z,12.10
2019-04-03T06:56:31.591Z,12.20
2019-04-03T06:59:00.054Z,12.30
2019-04-03T07:01:28.581Z,12.30
2019-04-03T07:03:57.102Z,12.30
2019-04-03T07:06:25.603Z,12.40
2019-04-03T07:08:54.065Z,12.20
2019-04-03T07:11:23.944Z,12.30
2019-04-03T07:13:53.852Z,12.40
2019-04-03T07:16:22.890Z,12.40
2019-04-03T07:18:51.352Z,12.50
2019-04-03T07:21:20.694Z,12.50
2019-04-03T07:23:50.161Z,12.60
2019-04-03T07:26:18.713Z,12.70
2019-04-03T07:28:47.270Z,12.60
2019-04-03T07:31:15.819Z,12.80
2019-04-03T07:33:44.275Z,12.90
2019-04-03T07:36:12.727Z,12.60
2019-04-03T07:38:41.287Z,12.60
2019-04-03T07:41:09.745Z,12.70
2019-04-03T07:43:38.216Z,12.60
2019-04-03T07:46:06.671Z,12.80
2019-04-03T07:48:35.807Z,13.00
2019-04-03T07:51:06.288Z,13.10
2019-04-03T07:53:34.930Z,13.40
2019-04-03T07:56:03.421Z,13.60
2019-04-03T07:58:32.570Z,13.70
2019-04-03T08:01:01.346Z,13.70
2019-04-03T08:03:30.249Z,13.60
2019-04-03T08:05:59.160Z,13.60
2019-04-03T08:08:27.862Z,13.50
2019-04-03T08:10:56.500Z,13.60
2019-04-03T08:13:25.147Z,13.70
2019-04-03T08:15:53.692Z,13.80
2019-04-03T08:18:22.339Z,13.90
2019-04-03T08:20:51.087Z,14.00
2019-04-03T08:23:19.877Z,13.70
2019-04-03T08:25:49.169Z,13.60
2019-04-03T08:28:17.941Z,13.80
2019-04-03T08:30:46.435Z,13.80
2019-04-03T08:33:18.146Z,13.60
2019-04-03T08:35:45.323Z,13.60
2019-04-03T08:38:14.234Z,13.80
2019-04-03T08:40:42.985Z,13.90
2019-04-03T08:43:11.836Z,14.10
2019-04-03T08:45:40.652Z,14.10
2019-04-03T08:48:09.139Z,14.10
2019-04-03T08:50:37.691Z,14.00
2019-04-03T08:53:08.670Z,14.20
2019-04-03T08:55:36.499Z,14.40
2019-04-03T08:58:05.051Z,14.40
2019-04-03T09:00:33.854Z,14.30
2019-04-03T09:03:04.108Z,14.10
2019-04-03T09:05:32.952Z,14.00
2019-04-03T09:08:01.565Z,14.20
2019-04-03T09:10:31.734Z,14.30
2019-04-03T09:13:00.232Z,14.50
2019-04-03T09:15:28.748Z,14.70
2019-04-03T09:17:57.221Z,14.50
2019-04-03T09:20:25.671Z,14.50
2019-04-03T09:22:54.507Z,14.50
2019-04-03T09:25:23.155Z,14.70
2019-04-03T09:27:51.617Z,15.00
2019-04-03T09:30:20.618Z,15.20
2019-04-03T09:32:49.070Z,15.30
2019-04-03T09:35:17.534Z,15.50
2019-04-03T09:37:46.678Z,15.40
2019-04-03T09:40:17.307Z,15.30
2019-04-03T09:42:45.584Z,15.50
2019-04-03T09:45:15.112Z,15.50
2019-04-03T09:47:43.575Z,15.40
2019-04-03T09:50:14.357Z,15.40
2019-04-03T09:52:48.128Z,15.70
2019-04-03T09:55:13.152Z,15.60
2019-04-03T09:57:41.776Z,15.60
2019-04-03T10:00:11.394Z,15.70
2019-04-03T10:02:40.172Z,15.70
2019-04-03T10:05:09.580Z,15.80
2019-04-03T10:07:38.310Z,15.80
2019-04-03T10:10:09.949Z,15.60
2019-04-03T10:12:38.476Z,15.90
2019-04-03T10:15:07.876Z,15.90
2019-04-03T10:17:38.267Z,15.80
2019-04-03T10:20:09.539Z,16.10
2019-04-03T10:22:38.391Z,16.20
2019-04-03T10:25:09.254Z,16.30
2019-04-03T10:27:37.922Z,16.50
2019-04-03T10:30:14.489Z,16.50
2019-04-03T10:32:43.007Z,16.60
2019-04-03T10:35:11.536Z,19.60
2019-04-03T10:37:39.995Z,23.70
2019-04-03T10:40:10.309Z,26.50
2019-04-03T10:42:39.090Z,28.60
2019-04-03T10:45:08.678Z,28.70
2019-04-03T10:47:42.395Z,27.90
2019-04-03T10:50:08.744Z,29.00
2019-04-03T10:52:37.411Z,29.20
2019-04-03T10:55:07.986Z,29.60
2019-04-03T10:57:37.137Z,29.50
2019-04-03T11:00:08.747Z,28.80
2019-04-03T11:02:36.637Z,30.50
2019-04-03T11:05:08.213Z,30.80
2019-04-03T11:07:36.824Z,29.90
2019-04-03T11:10:08.228Z,29.70
2019-04-03T11:12:36.740Z,30.80
2019-04-03T11:15:10.813Z,30.50
2019-04-03T11:17:38.360Z,31.40
2019-04-03T11:20:10.182Z,31.40
2019-04-03T11:22:41.590Z,30.80
2019-04-03T11:25:09.761Z,29.40
2019-04-03T11:27:43.317Z,28.30
2019-04-03T11:30:18.741Z,29.40
2019-04-03T11:32:45.304Z,30.70
2019-04-03T11:35:15.009Z,29.90
2019-04-03T11:37:43.786Z,29.40
2019-04-03T11:40:13.796Z,29.30
2019-04-03T11:42:42.546Z,29.10
2019-04-03T11:45:11.705Z,28.40
2019-04-03T11:47:40.403Z,28.30
2019-04-03T11:50:11.325Z,27.70
2019-04-03T11:52:39.990Z,27.90
2019-04-03T11:55:10.954Z,28.20
2019-04-03T11:57:39.741Z,28.10
2019-04-03T12:00:15.795Z,28.60
2019-04-03T12:02:44.747Z,28.30
2019-04-03T12:05:20.050Z,30.70
2019-04-03T12:07:46.783Z,30.10
2019-04-03T12:10:15.972Z,31.20
2019-04-03T12:12:44.766Z,31.70
2019-04-03T12:15:16.226Z,31.00
2019-04-03T12:17:44.298Z,31.90
2019-04-03T12:20:16.324Z,30.50
2019-04-03T12:22:45.180Z,29.00
2019-04-03T12:25:14.564Z,28.30
2019-04-03T12:27:45.019Z,27.00
2019-04-03T12:30:14.031Z,25.40
2019-04-03T12:32:47.514Z,25.30
2019-04-03T12:35:12.955Z,24.20
2019-04-03T12:37:41.421Z,23.40
2019-04-03T12:40:10.410Z,23.70
2019-04-03T12:42:38.937Z,25.40
2019-04-03T12:45:08.471Z,25.60
2019-04-03T12:47:37.484Z,25.10
2019-04-03T12:50:07.891Z,25.40
2019-04-03T12:52:36.640Z,25.60
2019-04-03T12:55:07.169Z,25.10
2019-04-03T12:57:38.881Z,25.20
2019-04-03T13:00:10.574Z,24.70
2019-04-03T13:02:39.014Z,23.40
2019-04-03T13:05:08.435Z,24.00
2019-04-03T13:07:37.500Z,25.90
2019-04-03T13:10:08.988Z,26.60
2019-04-03T13:12:37.519Z,26.70
2019-04-03T13:15:09.449Z,26.60
2019-04-03T13:17:38.208Z,26.70
2019-04-03T13:20:08.082Z,26.30
2019-04-03T13:22:36.806Z,25.60
2019-04-03T13:25:08.649Z,24.80
2019-04-03T13:27:37.676Z,24.30
2019-04-03T13:30:11.147Z,24.20
2019-04-03T13:32:39.266Z,23.70
2019-04-03T13:35:11.402Z,24.10
2019-04-03T13:37:39.918Z,24.10
2019-04-03T13:40:09.817Z,24.20
2019-04-03T13:42:38.618Z,23.50
2019-04-03T13:45:08.736Z,23.60
2019-04-03T13:47:39.778Z,23.80
2019-04-03T13:50:09.752Z,23.60
2019-04-03T13:52:42.444Z,24.00
2019-04-03T13:55:09.103Z,23.90
2019-04-03T13:57:37.830Z,23.10
2019-04-03T14:00:18.178Z,22.80
2019-04-03T14:02:38.615Z,22.80
2019-04-03T14:05:08.818Z,22.90
2019-04-03T14:07:40.315Z,22.50
2019-04-03T14:10:09.761Z,22.20
2019-04-03T14:12:42.944Z,21.70
2019-04-03T14:15:09.684Z,21.60
2019-04-03T14:17:38.578Z,21.60
2019-04-03T14:20:09.147Z,21.40
2019-04-03T14:22:37.676Z,21.20
2019-04-03T14:25:17.976Z,21.10
2019-04-03T14:27:37.731Z,20.90
2019-04-03T14:30:11.589Z,20.80
2019-04-03T14:32:37.889Z,20.80
2019-04-03T14:35:38.459Z,20.90
2019-04-03T14:37:37.544Z,20.70
2019-04-03T14:40:11.156Z,20.50
2019-04-03T14:42:37.596Z,20.30
2019-04-03T14:45:09.309Z,19.80
2019-04-03T14:47:37.752Z,19.90
2019-04-03T14:50:07.150Z,19.90
2019-04-03T14:52:38.629Z,19.80
2019-04-03T14:55:18.228Z,19.90
2019-04-03T14:57:38.269Z,19.80
2019-04-03T15:00:25.254Z,19.70
2019-04-03T15:02:40.670Z,19.60
2019-04-03T15:05:09.993Z,19.50
2019-04-03T15:07:38.597Z,19.50
2019-04-03T15:10:08.475Z,19.30
2019-04-03T15:12:39.911Z,19.20
2019-04-03T15:15:09.721Z,19.20
2019-04-03T15:17:38.919Z,19.10
2019-04-03T15:20:10.413Z,19.20
2019-04-03T15:22:39.458Z,19.10
2019-04-03T15:25:08.829Z,19.30
2019-04-03T15:27:37.526Z,19.20
2019-04-03T15:30:09.919Z,19.20
2019-04-03T15:32:37.696Z,19.30
2019-04-03T15:35:06.979Z,19.40
2019-04-03T15:37:35.434Z,19.40
2019-04-03T15:40:04.936Z,19.40
2019-04-03T15:42:33.527Z,19.70
2019-04-03T15:45:02.349Z,19.50
2019-04-03T15:47:37.109Z,19.30
2019-04-03T15:50:01.772Z,19.20
2019-04-03T15:52:30.418Z,19.10
2019-04-03T15:54:58.948Z,19.10
2019-04-03T15:57:27.641Z,19.00
2019-04-03T15:59:56.449Z,18.90
2019-04-03T16:02:27.756Z,18.70
2019-04-03T16:04:55.253Z,18.70
2019-04-03T16:07:23.780Z,18.60
2019-04-03T16:09:52.315Z,18.50
2019-04-03T16:12:21.229Z,18.40
2019-04-03T16:14:51.127Z,18.40
2019-04-03T16:17:20.096Z,18.40
2019-04-03T16:19:48.697Z,18.30
2019-04-03T16:22:17.180Z,18.40
2019-04-03T16:24:45.646Z,18.40
2019-04-03T16:27:14.092Z,18.20
2019-04-03T16:29:42.626Z,18.20
2019-04-03T16:32:11.514Z,18.20
2019-04-03T16:34:41.678Z,18.20
2019-04-03T16:37:10.623Z,18.10
2019-04-03T16:39:39.254Z,18.10
2019-04-03T16:42:07.772Z,18.00
2019-04-03T16:44:36.635Z,18.00
2019-04-03T16:47:05.278Z,18.00
2019-04-03T16:49:36.994Z,17.90
2019-04-03T16:52:05.818Z,17.70
2019-04-03T16:54:34.816Z,17.70
2019-04-03T16:57:03.681Z,17.60
2019-04-03T16:59:35.350Z,17.60
2019-04-03T17:02:02.609Z,18.00
2019-04-03T17:04:31.177Z,17.70
2019-04-03T17:06:59.738Z,17.50
2019-04-03T17:09:28.263Z,17.50
2019-04-03T17:11:56.711Z,17.40
2019-04-03T17:14:25.724Z,17.30
2019-04-03T17:16:54.451Z,17.20
2019-04-03T17:19:22.984Z,17.20
2019-04-03T17:21:51.504Z,17.20
2019-04-03T17:24:19.970Z,17.10
2019-04-03T17:26:55.489Z,16.90
2019-04-03T17:29:18.667Z,16.80
2019-04-03T17:31:47.115Z,16.80
2019-04-03T17:34:15.849Z,16.70
2019-04-03T17:36:44.549Z,16.60
2019-04-03T17:39:13.468Z,16.50
2019-04-03T17:41:42.140Z,16.50
2019-04-03T17:44:12.025Z,16.40
2019-04-03T17:46:40.779Z,16.50
2019-04-03T17:49:09.224Z,16.40
2019-04-03T17:51:37.673Z,16.20
2019-04-03T17:54:07.757Z,16.10
2019-04-03T17:56:36.329Z,16.00
2019-04-03T17:59:04.861Z,16.00
2019-04-03T18:01:33.317Z,16.00
2019-04-03T18:04:01.801Z,15.90
2019-04-03T18:06:30.309Z,15.90
2019-04-03T18:08:58.770Z,15.90
2019-04-03T18:11:27.228Z,15.80
2019-04-03T18:13:55.699Z,15.70
2019-04-03T18:16:24.148Z,15.60
2019-04-03T18:18:52.596Z,15.50
2019-04-03T18:21:21.073Z,15.40
2019-04-03T18:23:52.647Z,15.30
2019-04-03T18:26:19.712Z,15.20
2019-04-03T18:28:48.246Z,15.40
2019-04-03T18:31:16.694Z,15.30
2019-04-03T18:33:45.152Z,15.20
2019-04-03T18:36:13.601Z,15.10
2019-04-03T18:38:42.060Z,15.00
2019-04-03T18:41:10.582Z,14.90
2019-04-03T18:43:39.037Z,14.90
2019-04-03T18:46:07.533Z,14.80
2019-04-03T18:48:36.044Z,14.70
2019-04-03T18:51:06.498Z,14.80
2019-04-03T18:53:34.693Z,14.70
2019-04-03T18:56:03.136Z,14.60
2019-04-03T18:58:31.604Z,14.60
2019-04-03T19:01:01.812Z,14.50
2019-04-03T19:03:30.365Z,14.50
2019-04-03T19:05:59.999Z,14.50
2019-04-03T19:08:28.792Z,14.40
2019-04-03T19:11:02.772Z,14.40
2019-04-03T19:13:27.506Z,14.30
2019-04-03T19:15:55.979Z,14.30
2019-04-03T19:18:24.516Z,14.30
2019-04-03T19:20:52.971Z,14.20
2019-04-03T19:23:21.426Z,14.20
2019-04-03T19:25:49.884Z,14.10
2019-04-03T19:28:18.324Z,14.10
2019-04-03T19:30:46.785Z,14.00
2019-04-03T19:33:15.238Z,14.00
2019-04-03T19:35:43.801Z,14.00
2019-04-03T19:38:13.345Z,13.90
2019-04-03T19:40:42.084Z,13.90
2019-04-03T19:43:10.607Z,14.00
2019-04-03T19:45:39.065Z,13.90
2019-04-03T19:48:07.645Z,13.80
2019-04-03T19:50:36.111Z,13.80
2019-04-03T19:53:04.556Z,13.80
2019-04-03T19:55:33.078Z,13.70
2019-04-03T19:58:01.585Z,13.70
2019-04-03T20:00:30.043Z,13.60
2019-04-03T20:02:58.581Z,13.60
2019-04-03T20:05:27.084Z,13.60
2019-04-03T20:07:58.689Z,13.90
2019-04-03T20:10:25.735Z,14.00
2019-04-03T20:12:54.201Z,14.00
2019-04-03T20:15:23.302Z,13.90
2019-04-03T20:17:54.575Z,13.60
2019-04-03T20:20:22.227Z,12.60
2019-04-03T20:22:50.783Z,11.30
2019-04-03T20:25:19.235Z,10.90
2019-04-03T20:27:51.374Z,10.60
2019-04-03T20:30:17.948Z,10.90
2019-04-03T20:32:46.410Z,10.60
2019-04-03T20:35:17.999Z,10.40
2019-04-03T20:37:45.057Z,9.80
2019-04-03T20:40:13.590Z,9.50
2019-04-03T20:42:42.034Z,9.60
2019-04-03T20:45:10.734Z,9.40
2019-04-03T20:47:39.257Z,9.30
2019-04-03T20:50:08.861Z,9.40
2019-04-03T20:52:37.312Z,9.20
2019-04-03T20:55:08.968Z,9.20
2019-04-03T20:57:37.497Z,9.20
2019-04-03T21:00:18.381Z,9.20
2019-04-03T21:02:46.787Z,8.60
2019-04-03T21:05:17.836Z,9.00
2019-04-03T21:07:45.422Z,9.30
2019-04-03T21:10:14.111Z,9.30
2019-04-03T21:12:42.559Z,9.10
2019-04-03T21:15:14.249Z,8.80
2019-04-03T21:17:41.748Z,9.40
2019-04-03T21:20:11.046Z,9.20
2019-04-03T21:22:39.581Z,8.90
2019-04-03T21:25:08.160Z,8.40
2019-04-03T21:27:39.669Z,8.40
2019-04-03T21:30:10.596Z,8.20
2019-04-03T21:32:39.121Z,8.30
2019-04-03T21:35:07.727Z,8.00
2019-04-03T21:37:36.167Z,8.50
2019-04-03T21:40:05.340Z,8.40
2019-04-03T21:42:36.617Z,8.50
2019-04-03T21:45:07.565Z,8.60
2019-04-03T21:47:36.477Z,8.70
2019-04-03T21:50:06.461Z,9.00
2019-04-03T21:52:34.915Z,9.30
2019-04-03T21:55:04.981Z,9.60
2019-04-03T21:57:33.551Z,9.50
2019-04-03T22:00:02.020Z,9.50
2019-04-03T22:02:30.460Z,9.10
2019-04-03T22:04:59.234Z,9.10
2019-04-03T22:07:28.537Z,9.00
2019-04-03T22:09:57.607Z,8.80
2019-04-03T22:12:26.059Z,8.80
2019-04-03T22:14:54.540Z,8.70
2019-04-03T22:17:22.991Z,8.60
2019-04-03T22:19:51.467Z,8.70
2019-04-03T22:22:19.989Z,9.20
2019-04-03T22:24:48.426Z,9.30
2019-04-03T22:27:16.881Z,9.40
2019-04-03T22:29:45.327Z,9.40
2019-04-03T22:32:13.775Z,9.40
2019-04-03T22:34:42.318Z,9.40
2019-04-03T22:37:10.833Z,9.40
2019-04-03T22:39:39.700Z,9.40
2019-04-03T22:42:08.320Z,8.60
2019-04-03T22:44:36.819Z,8.90
2019-04-03T22:47:05.294Z,9.20
2019-04-03T22:49:34.427Z,9.20
2019-04-03T22:52:03.070Z,8.40
2019-04-03T22:54:31.520Z,8.50
2019-04-03T22:56:59.961Z,8.90
2019-04-03T22:59:28.480Z,9.10
2019-04-03T23:01:57.016Z,9.10
2019-04-03T23:04:25.461Z,8.60
2019-04-03T23:06:53.911Z,8.00
2019-04-03T23:09:24.753Z,8.00
2019-04-03T23:11:52.491Z,8.00
2019-04-03T23:14:20.903Z,8.00
2019-04-03T23:16:49.326Z,8.40
2019-04-03T23:19:18.040Z,8.30
2019-04-03T23:21:47.029Z,8.50
2019-04-03T23:24:15.438Z,8.60
2019-04-03T23:26:43.852Z,8.60
2019-04-03T23:29:12.248Z,8.60
2019-04-03T23:31:40.681Z,8.60
2019-04-03T23:34:09.084Z,8.50
2019-04-03T23:36:37.492Z,8.40
2019-04-03T23:39:08.141Z,8.30
2019-04-03T23:41:37.019Z,7.90
2019-04-03T23:44:05.617Z,7.90
2019-04-03T23:46:34.008Z,7.80
2019-04-03T23:49:02.532Z,7.80
2019-04-03T23:51:30.987Z,8.00
2019-04-03T23:53:59.394Z,7.50
2019-04-03T23:56:27.804Z,7.50
2019-04-03T23:58:56.237Z,7.70
